Time;durP1;ratioP1;P1;durP2;ratioP2;P2;SDS_P1;SDS_P2;PMS_P1;PMS_P2;Temp;Humidity;BMP_temperature;BMP_pressure;BME280_temperature;BME280_humidity;BME280_pressure;Samples;Min_cycle;Max_cycle;Signal;HPM_P1;HPM_P2
2023/07/10 00:01:29;;;;;;;10.40;4.62;;;;;;;23.43;47.15;99515.41;4387762;32;33956;-89
2023/07/10 00:03:57;;;;;;;8.23;4.45;;;;;;;23.09;48.06;99505.97;4386047;32;33184;-90
2023/07/10 00:06:25;;;;;;;8.77;4.40;;;;;;;23.14;47.88;99511.97;4374986;32;34701;-89
2023/07/10 00:08:53;;;;;;;7.57;4.43;;;;;;;23.02;48.32;99507.09;4387673;32;33629;-88
2023/07/10 00:11:26;;;;;;;8.95;4.68;;;;;;;22.96;48.41;99510.81;4386156;32;33557;-89
2023/07/10 00:13:55;;;;;;;7.70;3.78;;;;;;;23.11;48.27;99509.44;4386749;32;33266;-88
2023/07/10 00:16:24;;;;;;;6.80;4.20;;;;;;;23.04;48.15;99513.19;4386735;32;33441;-88
2023/07/10 00:18:51;;;;;;;9.00;4.43;;;;;;;23.04;48.33;99513.19;4385261;32;33233;-89
2023/07/10 00:21:19;;;;;;;8.50;5.07;;;;;;;22.91;48.98;99517.09;4385979;32;33522;-90
2023/07/10 00:23:47;;;;;;;8.27;4.18;;;;;;;22.96;48.97;99520.53;4386003;32;34241;-89
2023/07/10 00:26:17;;;;;;;8.48;4.32;;;;;;;23.13;48.75;99512.03;4385589;32;33127;-90
2023/07/10 00:28:45;;;;;;;8.20;4.50;;;;;;;23.13;48.50;99506.72;4384874;32;33924;-89
2023/07/10 00:31:13;;;;;;;8.25;4.50;;;;;;;23.08;48.47;99512.19;4371642;32;33404;-88
2023/07/10 00:33:40;;;;;;;7.07;4.45;;;;;;;23.10;48.37;99520.06;4387050;32;33682;-88
2023/07/10 00:36:26;;;;;;;7.72;4.32;;;;;;;22.95;48.75;99510.84;4384032;32;32481;-89
2023/07/10 00:38:54;;;;;;;7.18;4.65;;;;;;;23.09;48.81;99516.53;4386102;32;34745;-89
2023/07/10 00:41:22;;;;;;;7.80;4.30;;;;;;;23.11;48.39;99512.09;4399768;32;34145;-90
2023/07/10 00:43:54;;;;;;;10.18;5.75;;;;;;;23.08;48.44;99509.53;4386338;32;33776;-89
2023/07/10 00:46:34;;;;;;;8.48;4.80;;;;;;;23.00;48.34;99511.56;4386105;32;33570;-86
2023/07/10 00:49:07;;;;;;;6.65;4.37;;;;;;;22.99;47.97;99510.69;4399266;32;33811;-86
2023/07/10 00:51:42;;;;;;;8.63;4.03;;;;;;;22.90;48.36;99513.59;4384961;32;34050;-85
2023/07/10 00:54:35;;;;;;;9.30;4.73;;;;;;;22.93;47.88;99512.69;4399869;32;33953;-88
2023/07/10 00:57:05;;;;;;;8.10;3.92;;;;;;;22.91;47.91;99507.41;4385580;32;32929;-87
2023/07/10 00:59:37;;;;;;;7.18;3.85;;;;;;;22.99;47.26;99504.53;4372015;32;33238;-86
2023/07/10 01:02:07;;;;;;;6.75;4.05;;;;;;;22.75;47.83;99501.72;4385870;32;34325;-86
2023/07/10 01:04:36;;;;;;;7.07;4.15;;;;;;;22.88;47.44;99506.63;4384931;32;33631;-85
2023/07/10 01:07:04;;;;;;;8.93;4.37;;;;;;;22.88;47.32;99504.87;4384830;32;33014;-86
2023/07/10 01:09:32;;;;;;;6.40;3.92;;;;;;;22.93;47.14;99510.91;4383554;32;33985;-86
2023/07/10 01:12:03;;;;;;;8.50;4.10;;;;;;;22.89;47.25;99503.09;4374396;32;32306;-86
2023/07/10 01:14:36;;;;;;;6.15;3.70;;;;;;;22.92;47.01;99509.19;4386742;32;34573;-88
2023/07/10 01:17:05;;;;;;;7.50;4.53;;;;;;;22.82;47.11;99508.56;4385019;32;33611;-88
2023/07/10 01:19:33;;;;;;;7.18;3.80;;;;;;;22.77;46.97;99507.84;4374270;32;34005;-88
2023/07/10 01:22:01;;;;;;;7.20;3.78;;;;;;;22.80;46.67;99504.22;4374561;32;35361;-87
2023/07/10 01:24:29;;;;;;;10.75;4.43;;;;;;;22.73;46.98;99505.31;4385694;32;32950;-87
2023/07/10 01:26:57;;;;;;;9.43;4.43;;;;;;;22.75;46.61;99503.50;4383670;32;34373;-87
2023/07/10 01:29:31;;;;;;;7.28;4.00;;;;;;;22.71;46.73;99500.09;4397945;32;35839;-87
2023/07/10 01:32:00;;;;;;;6.97;3.62;;;;;;;22.77;46.60;99505.22;4372990;32;33716;-88
2023/07/10 01:34:37;;;;;;;6.90;3.87;;;;;;;22.70;46.71;99506.31;4386873;32;34155;-88
2023/07/10 01:37:06;;;;;;;6.93;4.22;;;;;;;22.76;46.62;99505.22;4373177;32;31818;-89
2023/07/10 01:39:46;;;;;;;6.45;3.78;;;;;;;22.64;46.79;99503.84;4386213;32;33581;-87
2023/07/10 01:42:14;;;;;;;7.22;3.55;;;;;;;22.79;46.69;99505.16;4398360;32;37066;-87
2023/07/10 01:44:45;;;;;;;6.65;4.10;;;;;;;22.76;46.66;99505.22;4386259;32;33680;-90
2023/07/10 01:47:14;;;;;;;7.55;4.15;;;;;;;22.77;46.74;99504.34;4387304;32;33117;-91
2023/07/10 01:49:48;;;;;;;7.20;4.20;;;;;;;22.75;46.80;99507.03;4374905;32;32977;-91
2023/07/10 01:52:17;;;;;;;9.45;4.37;;;;;;;22.82;46.53;99499.75;4387446;32;34836;-92
2023/07/10 01:54:45;;;;;;;7.45;4.57;;;;;;;22.80;46.62;99502.44;4386865;32;33613;-90
2023/07/10 01:57:14;;;;;;;7.55;4.40;;;;;;;22.79;46.71;99495.44;4388738;32;33018;-90
2023/07/10 01:59:42;;;;;;;9.05;4.43;;;;;;;22.65;46.78;99487.06;4387672;32;32217;-90
2023/07/10 02:02:10;;;;;;;6.25;4.20;;;;;;;22.58;47.03;99494.34;4388697;32;35250;-88
2023/07/10 02:04:38;;;;;;;7.00;4.00;;;;;;;22.71;46.89;99500.09;4389021;32;33476;-90
2023/07/10 02:07:05;;;;;;;8.07;4.15;;;;;;;22.74;46.73;99500.00;4386620;32;33594;-89
2023/07/10 02:09:33;;;;;;;9.27;4.50;;;;;;;22.51;47.10;99497.22;4387293;32;33963;-90
2023/07/10 02:12:02;;;;;;;6.57;3.92;;;;;;;22.62;46.86;99497.75;4387752;32;34011;-89
2023/07/10 02:14:30;;;;;;;6.65;3.97;;;;;;;22.53;47.20;99498.03;4371646;32;33711;-90
2023/07/10 02:16:57;;;;;;;7.60;4.10;;;;;;;22.48;47.66;99506.09;4388040;32;33461;-88
2023/07/10 02:19:25;;;;;;;7.28;4.37;;;;;;;22.31;48.26;99501.34;4388776;32;34341;-90
2023/07/10 02:21:53;;;;;;;11.02;4.50;;;;;;;22.49;47.93;99494.59;4388013;32;34881;-89
2023/07/10 02:24:20;;;;;;;7.57;4.55;;;;;;;22.35;48.55;99499.47;4386751;32;33816;-88
2023/07/10 02:26:48;;;;;;;8.18;3.90;;;;;;;22.44;48.37;99487.75;4387312;32;34106;-88
2023/07/10 02:29:16;;;;;;;8.25;4.32;;;;;;;22.49;48.30;99494.59;4373105;32;33848;-89
2023/07/10 02:31:43;;;;;;;9.52;4.32;;;;;;;22.54;48.58;99498.00;4387990;32;32703;-89
2023/07/10 02:34:11;;;;;;;6.43;4.25;;;;;;;22.48;49.05;99498.19;4387686;32;33737;-88
2023/07/10 02:36:40;;;;;;;9.82;4.15;;;;;;;22.52;48.82;99493.66;4386607;32;33449;-89
2023/07/10 02:39:08;;;;;;;7.43;4.40;;;;;;;22.54;49.36;99498.00;4385908;32;32727;-90
2023/07/10 02:41:35;;;;;;;9.13;4.75;;;;;;;22.56;49.15;99505.87;4384436;32;34941;-91
2023/07/10 02:44:03;;;;;;;7.10;4.60;;;;;;;22.37;49.57;99502.91;4387890;32;33609;-89
2023/07/10 02:46:31;;;;;;;9.05;4.72;;;;;;;22.29;50.17;99492.56;4389891;32;33357;-89
2023/07/10 02:48:59;;;;;;;8.20;4.53;;;;;;;22.43;49.94;99497.47;4386853;32;34645;-89
2023/07/10 02:51:27;;;;;;;9.02;4.68;;;;;;;22.48;49.92;99500.81;4388457;32;33234;-88
2023/07/10 02:53:55;;;;;;;8.32;4.57;;;;;;;22.46;49.85;99491.19;4376455;32;32932;-88
2023/07/10 02:56:23;;;;;;;7.72;4.47;;;;;;;22.40;50.59;99494.03;4388580;32;34059;-90
2023/07/10 02:58:51;;;;;;;8.43;5.22;;;;;;;22.47;50.36;99490.31;4388639;32;33564;-88
2023/07/10 03:01:22;;;;;;;8.90;5.43;;;;;;;22.49;50.56;99496.41;4388158;32;34149;-89
2023/07/10 03:03:50;;;;;;;10.10;5.07;;;;;;;22.56;50.83;99492.66;4389573;32;34028;-91
2023/07/10 03:06:19;;;;;;;8.38;4.95;;;;;;;22.51;50.76;99491.94;4387778;32;34131;-88
2023/07/10 03:08:47;;;;;;;8.85;5.72;;;;;;;22.44;51.28;99490.41;4389130;32;34195;-90
2023/07/10 03:11:16;;;;;;;8.25;4.93;;;;;;;22.36;52.01;99493.28;4389860;32;33987;-88
2023/07/10 03:13:44;;;;;;;8.77;5.10;;;;;;;22.48;51.75;99487.59;4387470;32;33984;-90
2023/07/10 03:16:14;;;;;;;8.25;5.20;;;;;;;22.37;52.11;99488.84;4388753;32;33460;-90
2023/07/10 03:18:42;;;;;;;10.32;5.60;;;;;;;22.45;51.88;99497.41;4388267;32;34270;-90
2023/07/10 03:21:09;;;;;;;9.60;5.57;;;;;;;22.42;52.05;99498.34;4387470;32;33973;-89
2023/07/10 03:23:37;;;;;;;8.88;5.68;;;;;;;22.49;52.26;99489.31;4387431;32;33726;-89
2023/07/10 03:26:05;;;;;;;9.65;5.45;;;;;;;22.51;52.30;99497.22;4388875;32;33577;-89
2023/07/10 03:28:35;;;;;;;10.00;5.22;;;;;;;22.60;52.22;99491.66;4391401;32;34493;-89
2023/07/10 03:31:03;;;;;;;10.55;5.35;;;;;;;22.56;52.58;99484.72;4401840;32;35059;-89
2023/07/10 03:33:31;;;;;;;7.50;5.20;;;;;;;22.77;52.17;99489.34;4388660;32;33883;-90
2023/07/10 03:36:00;;;;;;;10.90;5.57;;;;;;;22.60;52.46;99494.28;4390111;32;33175;-90
2023/07/10 03:38:28;;;;;;;7.90;5.28;;;;;;;22.55;52.80;99489.16;4377746;32;34214;-89
2023/07/10 03:40:57;;;;;;;10.93;5.47;;;;;;;22.75;52.35;99485.88;4391088;32;34140;-88
2023/07/10 03:43:26;;;;;;;9.68;5.82;;;;;;;22.77;52.51;99477.91;4390605;32;34015;-89
2023/07/10 03:45:54;;;;;;;8.93;5.22;;;;;;;22.73;53.00;99484.19;4391531;32;34050;-87
2023/07/10 03:48:22;;;;;;;9.38;5.47;;;;;;;22.71;53.42;99484.25;4389843;32;33931;-91
2023/07/10 03:50:50;;;;;;;7.32;5.30;;;;;;;22.69;53.65;99483.44;4391544;32;34261;-89
2023/07/10 03:53:17;;;;;;;8.90;5.60;;;;;;;22.93;53.42;99475.66;4390419;32;33965;-88
2023/07/10 03:55:52;;;;;;;7.00;5.00;;;;;;;22.99;53.35;99478.09;4391559;32;33438;-90
2023/07/10 03:58:24;;;;;;;;;;;;;;;23.14;53.41;99479.38;4390126;32;34732;-89
2023/07/10 04:00:52;;;;;;;6.70;4.93;;;;;;;23.45;52.67;99471.22;4376553;32;33627;-88
2023/07/10 04:03:22;;;;;;;7.90;4.97;;;;;;;23.34;52.64;99476.06;4390598;32;34795;-90
2023/07/10 04:05:52;;;;;;;10.20;5.65;;;;;;;23.37;53.30;99474.16;4389990;32;34053;-90
2023/07/10 04:08:21;;;;;;;10.15;5.43;;;;;;;23.49;53.29;99480.81;4389491;32;32919;-90
2023/07/10 04:10:50;;;;;;;9.30;5.60;;;;;;;23.67;53.03;99476.66;4377453;32;32652;-90
2023/07/10 04:13:17;;;;;;;10.85;5.93;;;;;;;23.73;52.63;99476.47;4388935;32;34064;-90
2023/07/10 04:16:00;;;;;;;9.07;5.18;;;;;;;23.86;52.66;99474.22;4390137;32;33511;-88
2023/07/10 04:18:32;;;;;;;9.45;5.50;;;;;;;24.13;52.14;99475.87;4390951;32;33930;-88
2023/07/10 04:21:03;;;;;;;9.40;5.65;;;;;;;24.09;52.43;99484.81;4388894;32;34927;-89
2023/07/10 04:23:30;;;;;;;11.02;5.93;;;;;;;24.19;52.46;99482.69;4387030;32;33425;-91
2023/07/10 04:25:57;;;;;;;7.75;5.70;;;;;;;24.37;52.85;99491.75;4385074;32;33229;-91
2023/07/10 04:28:25;;;;;;;8.80;5.10;;;;;;;24.69;52.28;99487.84;4390840;32;34518;-90
2023/07/10 04:30:54;;;;;;;9.90;5.57;;;;;;;24.90;51.37;99491.44;4391176;32;34186;-89
2023/07/10 04:33:21;;;;;;;11.30;4.87;;;;;;;24.95;51.94;99489.44;4376781;32;32489;-89
2023/07/10 04:35:54;;;;;;;8.48;5.35;;;;;;;25.13;51.54;99488.72;4376838;32;34252;-89
2023/07/10 04:38:24;;;;;;;9.13;5.30;;;;;;;25.40;50.91;99480.53;4390217;32;34655;-90
2023/07/10 04:40:53;;;;;;;9.43;5.32;;;;;;;25.73;50.61;99478.19;4389510;32;32584;-90
2023/07/10 04:43:21;;;;;;;9.25;5.70;;;;;;;25.99;50.04;99477.06;4388173;32;33060;-90
2023/07/10 04:45:50;;;;;;;10.40;5.47;;;;;;;26.21;49.63;99476.91;4390875;32;33379;-89
2023/07/10 04:48:17;;;;;;;8.98;5.30;;;;;;;26.32;49.53;99468.44;4389524;32;33940;-89
2023/07/10 04:50:50;;;;;;;8.00;5.60;;;;;;;26.51;49.52;99474.66;4377229;32;34235;-91
2023/07/10 04:53:18;;;;;;;7.28;4.65;;;;;;;26.71;48.99;99472.81;4388208;32;34035;-90
2023/07/10 04:55:47;;;;;;;9.05;4.78;;;;;;;27.07;47.88;99473.69;4389382;32;34072;-90
2023/07/10 04:58:15;;;;;;;8.98;4.85;;;;;;;27.41;48.07;99477.31;4376983;32;33803;-92
2023/07/10 05:00:43;;;;;;;8.85;5.20;;;;;;;27.32;47.88;99478.66;4388699;32;34059;-90
2023/07/10 05:03:29;;;;;;;8.63;4.75;;;;;;;27.49;47.78;99476.94;4400435;32;34529;-89
2023/07/10 05:05:58;;;;;;;9.90;6.00;;;;;;;27.88;47.19;99476.66;4389273;32;33173;-91
2023/07/10 05:08:27;;;;;;;9.98;5.32;;;;;;;27.97;47.06;99481.50;4389596;32;34470;-88
2023/07/10 05:10:54;;;;;;;8.88;4.87;;;;;;;27.89;47.41;99483.72;4388029;32;34043;-87
2023/07/10 05:13:27;;;;;;;10.82;5.68;;;;;;;28.09;47.21;99486.16;4375697;32;32254;-87
2023/07/10 05:15:58;;;;;;;8.18;4.75;;;;;;;28.43;46.01;99489.69;4390949;32;33447;-88
2023/07/10 05:18:26;;;;;;;11.43;5.22;;;;;;;28.47;46.96;99493.03;4389438;32;33673;-88
2023/07/10 05:20:54;;;;;;;10.85;5.00;;;;;;;28.56;46.74;99495.19;4388657;32;34550;-86
2023/07/10 05:23:22;;;;;;;7.05;5.07;;;;;;;28.75;45.95;99492.34;4388916;32;34845;-87
2023/07/10 05:26:10;;;;;;;10.98;5.53;;;;;;;29.04;46.19;99491.56;4389944;32;34179;-87
2023/07/10 05:28:37;;;;;;;10.50;5.10;;;;;;;28.99;46.67;99484.78;4389123;32;33551;-86
2023/07/10 05:31:07;;;;;;;9.18;5.47;;;;;;;29.13;46.46;99489.31;4388305;32;34235;-88
2023/07/10 05:33:35;;;;;;;8.65;5.32;;;;;;;29.19;45.35;99488.97;4389793;32;34915;-84
2023/07/10 05:36:05;;;;;;;8.40;5.32;;;;;;;29.43;44.34;99482.16;4384047;32;33306;-86
2023/07/10 05:38:34;;;;;;;11.82;6.20;;;;;;;29.49;43.11;99492.47;4400079;32;33693;-87
2023/07/10 05:41:02;;;;;;;9.68;5.53;;;;;;;29.44;44.76;99488.38;4388833;32;34600;-87
2023/07/10 05:43:31;;;;;;;8.75;5.25;;;;;;;29.73;44.06;99489.28;4389923;32;33923;-88
2023/07/10 05:45:59;;;;;;;9.82;5.43;;;;;;;30.03;42.90;99492.75;4389005;32;33395;-85
2023/07/10 05:48:28;;;;;;;12.80;5.65;;;;;;;29.66;40.66;99494.16;4388425;32;33854;-86
2023/07/10 05:50:56;;;;;;;8.15;5.65;;;;;;;29.81;40.82;99487.00;4387819;32;34141;-86
2023/07/10 05:53:25;;;;;;;9.25;5.82;;;;;;;29.61;42.27;99484.72;4389407;32;33996;-88
2023/07/10 05:55:53;;;;;;;10.25;6.03;;;;;;;29.62;42.53;99486.41;4401367;32;34352;-87
2023/07/10 05:58:23;;;;;;;8.93;4.85;;;;;;;29.71;42.99;99491.22;4374953;32;33720;-88
2023/07/10 06:00:54;;;;;;;8.15;5.20;;;;;;;30.30;42.84;99494.69;4389051;32;34099;-88
2023/07/10 06:03:22;;;;;;;10.75;5.57;;;;;;;30.16;41.12;99492.00;4388269;32;34761;-86
2023/07/10 06:05:55;;;;;;;12.40;5.70;;;;;;;30.04;40.87;99494.50;4388779;32;33636;-85
2023/07/10 06:08:25;;;;;;;9.55;5.95;;;;;;;29.45;41.70;99501.62;4389433;32;33892;-87
2023/07/10 06:10:53;;;;;;;11.20;5.93;;;;;;;30.17;41.17;99486.59;4389250;32;34054;-87
2023/07/10 06:13:21;;;;;;;11.70;5.78;;;;;;;30.33;41.18;99488.28;4387472;32;33859;-90
2023/07/10 06:15:50;;;;;;;11.20;5.43;;;;;;;30.28;42.17;99491.25;4387563;32;31922;-87
2023/07/10 06:18:18;;;;;;;9.27;5.62;;;;;;;30.38;41.44;99481.66;4388777;32;35092;-88
2023/07/10 06:21:05;;;;;;;9.35;5.45;;;;;;;30.11;41.89;99489.59;4390384;32;33748;-89
2023/07/10 06:23:33;;;;;;;10.90;6.20;;;;;;;30.85;40.90;99480.44;4388981;32;34095;-87
2023/07/10 06:26:01;;;;;;;8.20;4.97;;;;;;;30.69;40.91;99485.91;4388872;32;34803;-86
2023/07/10 06:28:31;;;;;;;8.15;5.47;;;;;;;30.71;40.74;99480.47;4389286;32;33743;-92
2023/07/10 06:31:01;;;;;;;10.25;5.57;;;;;;;31.01;41.04;99478.47;4376361;32;34867;-90
2023/07/10 06:33:30;;;;;;;8.90;5.72;;;;;;;31.39;38.92;99477.72;4385649;32;32701;-88
2023/07/10 06:35:58;;;;;;;11.15;5.40;;;;;;;31.40;39.74;99475.91;4393726;32;33328;-89
2023/07/10 06:38:26;;;;;;;7.75;4.80;;;;;;;31.09;39.54;99482.44;4386139;32;33962;-85
2023/07/10 06:40:54;;;;;;;13.20;5.75;;;;;;;31.42;39.81;99487.38;4400281;32;33877;-86
2023/07/10 06:43:23;;;;;;;8.00;5.10;;;;;;;31.89;39.41;99476.06;4388110;32;33975;-89
2023/07/10 06:45:51;;;;;;;8.82;5.07;;;;;;;31.86;38.41;99470.94;4388578;32;34206;-88
2023/07/10 06:48:19;;;;;;;10.82;5.60;;;;;;;31.96;37.98;99466.63;4389824;32;35020;-87
2023/07/10 06:50:49;;;;;;;9.93;6.15;;;;;;;32.13;37.26;99478.00;4389912;32;32931;-89
2023/07/10 06:53:17;;;;;;;8.80;5.00;;;;;;;32.26;37.02;99472.59;4385704;32;33740;-89
2023/07/10 06:56:00;;;;;;;9.07;5.00;;;;;;;32.38;37.66;99480.59;4388441;32;34148;-90
2023/07/10 06:58:31;;;;;;;8.82;5.15;;;;;;;32.55;34.60;99466.00;4396705;32;34681;-86
2023/07/10 07:01:00;;;;;;;10.52;5.03;;;;;;;32.54;35.18;99471.47;4388055;32;34514;-88
2023/07/10 07:03:29;;;;;;;9.48;4.87;;;;;;;32.42;35.63;99471.41;4378780;32;34112;-88
2023/07/10 07:05:57;;;;;;;10.70;5.00;;;;;;;32.63;35.18;99470.81;4378397;32;34171;-89
2023/07/10 07:08:25;;;;;;;9.38;4.62;;;;;;;32.57;34.57;99466.75;4391591;32;34416;-90
2023/07/10 07:10:53;;;;;;;8.30;5.03;;;;;;;32.55;35.85;99473.22;4390353;32;34102;-90
2023/07/10 07:13:21;;;;;;;7.90;4.72;;;;;;;32.71;35.36;99476.47;4390201;32;34668;-87
2023/07/10 07:15:58;;;;;;;9.88;5.03;;;;;;;32.03;33.83;99459.00;4391647;32;33251;-89
2023/07/10 07:18:26;;;;;;;11.90;5.25;;;;;;;32.00;34.28;99464.59;4391794;32;34771;-88
2023/07/10 07:20:56;;;;;;;8.70;4.93;;;;;;;32.41;34.55;99461.63;4391003;32;35051;-86
2023/07/10 07:23:24;;;;;;;7.85;4.65;;;;;;;32.55;34.71;99460.63;4389583;32;34706;-90
2023/07/10 07:25:53;;;;;;;8.80;5.10;;;;;;;32.38;33.75;99455.59;4391167;32;33099;-87
2023/07/10 07:28:21;;;;;;;8.50;5.00;;;;;;;32.17;35.12;99464.25;4375126;32;34743;-87
2023/07/10 07:30:48;;;;;;;10.40;5.55;;;;;;;32.14;35.73;99468.97;4387641;32;34508;-88
2023/07/10 07:33:17;;;;;;;15.65;5.05;;;;;;;32.36;35.21;99470.97;4389495;32;33608;-85
2023/07/10 07:35:46;;;;;;;10.68;5.25;;;;;;;32.66;34.76;99467.91;4389295;32;34233;-86
2023/07/10 07:38:14;;;;;;;8.57;4.62;;;;;;;32.06;35.59;99463.31;4390806;32;33507;-86
2023/07/10 07:40:42;;;;;;;8.15;5.20;;;;;;;31.92;35.84;99465.13;4389449;32;33449;-85
2023/07/10 07:43:10;;;;;;;8.43;4.68;;;;;;;32.06;35.29;99463.31;4390635;32;34279;-84
2023/07/10 07:45:37;;;;;;;8.50;5.22;;;;;;;31.64;34.73;99459.97;4391516;32;34109;-86
2023/07/10 07:48:05;;;;;;;9.40;5.53;;;;;;;32.01;35.00;99454.72;4390446;32;33721;-86
2023/07/10 07:50:33;;;;;;;11.05;4.95;;;;;;;32.04;35.03;99459.87;4390539;32;34174;-86
2023/07/10 07:53:00;;;;;;;10.18;4.80;;;;;;;31.91;35.30;99463.41;4391475;32;33008;-85
2023/07/10 07:55:29;;;;;;;8.10;4.35;;;;;;;31.87;34.88;99469.13;4391358;32;33102;-85
2023/07/10 07:57:57;;;;;;;10.27;5.12;;;;;;;32.16;35.34;99467.03;4390999;32;33860;-86
2023/07/10 08:00:25;;;;;;;10.77;4.65;;;;;;;32.58;35.25;99459.53;4391183;32;33405;-89
2023/07/10 08:02:55;;;;;;;9.75;5.18;;;;;;;32.18;34.58;99451.69;4388264;32;34548;-86
2023/07/10 08:05:24;;;;;;;9.32;4.80;;;;;;;32.55;33.98;99454.41;4390338;32;33714;-86
2023/07/10 08:08:12;;;;;;;8.27;4.80;;;;;;;32.37;33.80;99452.06;4326417;32;34656;-88
2023/07/10 08:10:42;;;;;;;9.65;5.20;;;;;;;32.61;34.39;99453.94;4349856;32;33859;-87
2023/07/10 08:13:11;;;;;;;7.65;4.75;;;;;;;32.27;35.09;99451.00;4356406;32;34662;-88
2023/07/10 08:15:39;;;;;;;8.18;4.78;;;;;;;32.48;34.44;99455.84;4333989;32;33266;-86
2023/07/10 08:18:08;;;;;;;8.18;4.68;;;;;;;32.57;34.43;99456.00;4358386;32;33704;-86
2023/07/10 08:20:36;;;;;;;10.25;5.22;;;;;;;32.39;35.17;99439.41;4348749;32;33933;-87
2023/07/10 08:23:04;;;;;;;6.80;4.15;;;;;;;32.50;33.52;99444.00;4333319;32;32939;-87
2023/07/10 08:25:33;;;;;;;7.70;4.00;;;;;;;32.34;33.26;99440.69;4362837;32;33704;-85
2023/07/10 08:28:00;;;;;;;9.93;4.68;;;;;;;32.29;32.76;99440.19;4390430;32;34334;-87
2023/07/10 08:30:28;;;;;;;6.75;4.00;;;;;;;32.40;32.43;99432.25;4380585;32;34127;-84
2023/07/10 08:32:56;;;;;;;7.65;5.05;;;;;;;32.22;31.38;99434.41;4404673;32;34983;-86
2023/07/10 08:35:23;;;;;;;9.13;4.45;;;;;;;32.45;32.67;99433.59;4393915;32;33583;-86
2023/07/10 08:37:51;;;;;;;9.38;5.03;;;;;;;32.19;32.86;99429.25;4394258;32;33134;-86
2023/07/10 08:40:28;;;;;;;8.93;4.50;;;;;;;32.49;32.06;99433.38;4390865;32;35117;-82
2023/07/10 08:42:58;;;;;;;14.70;5.18;;;;;;;32.72;31.83;99427.16;4389827;32;34008;-86
2023/07/10 08:45:34;;;;;;;8.25;4.70;;;;;;;32.42;32.69;99428.47;4389855;32;33160;-87
2023/07/10 08:48:27;;;;;;;11.35;5.10;;;;;;;32.60;33.32;99426.25;4388192;32;34698;-86
2023/07/10 08:51:21;;;;;;;8.38;4.45;;;;;;;32.68;31.95;99423.00;4376970;32;33865;-86
2023/07/10 08:53:58;;;;;;;8.32;4.12;;;;;;;32.61;32.10;99424.41;4390110;32;34128;-87
2023/07/10 08:56:34;;;;;;;7.50;4.70;;;;;;;32.85;32.48;99427.97;4389680;32;33504;-86
2023/07/10 08:59:31;;;;;;;8.63;4.87;;;;;;;32.98;32.38;99419.00;4401426;32;33652;-86
2023/07/10 09:01:59;;;;;;;9.25;5.22;;;;;;;32.99;32.51;99412.66;4380728;32;33739;-85
2023/07/10 09:04:29;;;;;;;8.90;5.35;;;;;;;33.07;32.59;99407.56;4389572;32;33931;-86
2023/07/10 09:07:01;;;;;;;10.43;4.68;;;;;;;33.07;32.62;99407.56;4389574;32;32940;-86
2023/07/10 09:09:42;;;;;;;8.07;4.80;;;;;;;33.26;31.94;99412.38;4389482;32;34301;-87
2023/07/10 09:12:15;;;;;;;9.10;5.28;;;;;;;33.35;32.40;99411.66;4389332;32;34896;-86
2023/07/10 09:14:56;;;;;;;8.27;4.70;;;;;;;33.45;33.36;99419.84;4387030;32;33717;-90
2023/07/10 09:17:39;;;;;;;7.70;4.50;;;;;;;33.64;32.61;99417.47;4385377;32;33121;-89
2023/07/10 09:20:12;;;;;;;8.07;4.85;;;;;;;33.33;31.13;99414.47;4388610;32;33235;-89
2023/07/10 09:22:55;;;;;;;9.55;4.75;;;;;;;33.36;30.73;99414.22;4362464;32;33918;-87
2023/07/10 09:25:23;;;;;;;10.80;4.68;;;;;;;33.48;32.39;99414.28;4388830;32;32868;-88
2023/07/10 09:27:51;;;;;;;7.90;4.45;;;;;;;33.24;30.82;99409.81;4387152;32;34270;-86
2023/07/10 09:30:36;;;;;;;7.57;4.90;;;;;;;32.91;31.32;99407.84;4384110;32;33972;-87
2023/07/10 09:33:06;;;;;;;11.27;4.50;;;;;;;33.53;31.44;99404.03;4385301;32;33839;-87
2023/07/10 09:35:36;;;;;;;9.93;5.03;;;;;;;33.61;31.79;99390.84;4377023;32;33409;-85
2023/07/10 09:38:03;;;;;;;6.93;4.70;;;;;;;33.57;31.07;99398.28;4401873;32;32986;-87
2023/07/10 09:40:43;;;;;;;14.95;4.93;;;;;;;33.59;31.85;99396.31;4390813;32;34022;-88
2023/07/10 09:43:20;;;;;;;8.07;5.00;;;;;;;33.87;32.17;99399.53;4388627;32;34115;-89
2023/07/10 09:45:51;;;;;;;8.55;5.28;;;;;;;33.69;31.80;99393.78;4377028;32;35256;-85
2023/07/10 09:48:32;;;;;;;8.70;5.20;;;;;;;33.62;31.58;99392.56;4391019;32;34594;-88
2023/07/10 09:51:06;;;;;;;10.07;4.87;;;;;;;33.65;31.81;99384.25;4389372;32;34471;-88
2023/07/10 09:53:37;;;;;;;8.20;5.32;;;;;;;33.90;32.60;99386.66;4390356;32;33411;-89
2023/07/10 09:56:04;;;;;;;6.90;5.15;;;;;;;33.51;32.67;99385.31;4389175;32;33961;-88
2023/07/10 09:58:33;;;;;;;9.20;4.68;;;;;;;34.04;31.39;99385.59;4390528;32;34014;-89
2023/07/10 10:01:01;;;;;;;7.90;4.60;;;;;;;34.04;32.27;99382.06;4364242;32;33953;-88
2023/07/10 10:03:38;;;;;;;7.30;4.70;;;;;;;34.37;30.99;99371.22;4388963;32;33647;-91
2023/07/10 10:06:18;;;;;;;8.27;5.07;;;;;;;34.60;31.10;99381.94;4387185;32;32670;-92
2023/07/10 10:08:47;;;;;;;9.20;4.72;;;;;;;34.27;29.39;99364.88;4395548;32;31812;-87
2023/07/10 10:11:15;;;;;;;6.10;3.97;;;;;;;34.03;28.77;99370.44;4377075;32;33652;-89
2023/07/10 10:13:46;;;;;;;10.65;4.82;;;;;;;34.15;29.29;99365.88;4388973;32;33101;-87
2023/07/10 10:16:51;;;;;;;9.73;4.18;;;;;;;34.05;29.66;99368.47;4389157;32;33339;-89
2023/07/10 10:19:21;;;;;;;8.70;4.10;;;;;;;34.20;29.58;99366.34;4386407;32;34088;-87
2023/07/10 10:21:49;;;;;;;8.52;4.12;;;;;;;34.46;28.73;99361.50;4388282;32;33916;-86
2023/07/10 10:24:17;;;;;;;8.82;4.12;;;;;;;34.54;28.73;99351.00;4399363;32;33797;-91
2023/07/10 10:26:54;;;;;;;8.77;4.28;;;;;;;34.31;28.60;99352.87;4388872;32;34080;-86
2023/07/10 10:29:40;;;;;;;7.30;4.20;;;;;;;34.59;28.05;99353.31;4374991;32;33571;-87
2023/07/10 10:32:08;;;;;;;7.10;4.45;;;;;;;34.31;27.89;99342.09;4388826;32;34634;-88
2023/07/10 10:34:47;;;;;;;7.90;4.07;;;;;;;34.30;28.07;99340.41;4362925;32;33809;-89
2023/07/10 10:37:32;;;;;;;7.75;4.57;;;;;;;33.86;28.83;99342.16;4369863;32;33884;-86
2023/07/10 10:40:13;;;;;;;7.30;4.32;;;;;;;34.23;28.54;99338.34;4365433;32;33142;-86
2023/07/10 10:42:50;;;;;;;7.50;4.10;;;;;;;34.80;28.37;99345.25;4388195;32;33694;-85
2023/07/10 10:45:36;;;;;;;7.20;4.45;;;;;;;34.85;28.73;99348.41;4388685;32;33865;-85
2023/07/10 10:48:25;;;;;;;7.68;4.70;;;;;;;35.01;28.40;99339.91;4378270;32;33638;-88
2023/07/10 10:51:01;;;;;;;9.00;4.70;;;;;;;34.80;28.89;99348.78;4380544;32;201560;-86
2023/07/10 10:53:57;;;;;;;9.85;4.60;;;;;;;34.49;28.66;99338.87;4386369;32;33805;-88
2023/07/10 10:56:25;;;;;;;;;;;;;;;34.97;28.66;99335.75;4396650;32;35216;-86
2023/07/10 10:59:14;;;;;;;8.45;4.43;;;;;;;34.85;28.62;99335.81;4377990;32;33632;-87
2023/07/10 11:01:49;;;;;;;10.15;4.97;;;;;;;35.23;29.25;99334.38;4391722;32;34353;-92
2023/07/10 11:04:32;;;;;;;8.80;5.03;;;;;;;34.59;29.43;99342.53;4378171;32;34967;-86
2023/07/10 11:07:13;;;;;;;9.90;4.60;;;;;;;34.76;29.51;99336.56;4377614;32;34061;-85
2023/07/10 11:09:52;;;;;;;8.85;5.00;;;;;;;34.56;29.18;99329.34;4391552;32;33839;-88
2023/07/10 11:12:23;;;;;;;7.12;3.85;;;;;;;34.46;29.82;99328.34;4365854;32;32854;-89
2023/07/10 11:15:00;;;;;;;9.68;4.80;;;;;;;34.87;29.48;99319.50;4377875;32;34030;-88
2023/07/10 11:17:28;;;;;;;8.30;4.53;;;;;;;34.86;28.51;99317.81;4390548;32;34107;-87
2023/07/10 11:19:56;;;;;;;6.90;4.50;;;;;;;34.75;29.17;99331.31;4376496;32;34503;-88
2023/07/10 11:22:29;;;;;;;9.20;4.90;;;;;;;34.49;27.54;99333.50;4377877;32;34244;-86
2023/07/10 11:24:58;;;;;;;9.43;4.28;;;;;;;34.41;27.71;99319.81;4365700;32;33769;-86
2023/07/10 11:27:34;;;;;;;8.93;4.95;;;;;;;34.91;28.18;99320.94;4365584;32;34696;-90
2023/07/10 11:30:13;;;;;;;8.20;4.60;;;;;;;34.85;28.87;99319.66;4390144;32;33569;-87
2023/07/10 11:33:15;;;;;;;7.07;4.22;;;;;;;35.02;26.98;99309.28;4388289;32;33961;-90
2023/07/10 11:36:10;;;;;;;7.53;4.62;;;;;;;35.22;27.76;99307.53;4391307;32;34112;-90
2023/07/10 11:38:58;;;;;;;8.90;4.03;;;;;;;34.75;28.36;99313.31;4391641;32;35219;-92
2023/07/10 11:41:29;;;;;;;9.68;4.10;;;;;;;34.68;27.98;99317.53;4389846;32;33491;-88
2023/07/10 11:44:19;;;;;;;7.68;4.55;;;;;;;34.90;25.95;99313.00;4401367;32;33401;-86
2023/07/10 11:47:02;;;;;;;9.77;4.47;;;;;;;35.00;25.29;99300.47;4400416;32;33614;-88
2023/07/10 11:49:35;;;;;;;8.98;4.55;;;;;;;35.08;26.45;99303.34;4403149;32;33564;-86
2023/07/10 11:52:18;;;;;;;7.50;4.30;;;;;;;34.89;26.40;99304.03;4417922;32;34506;-86